Terminal Aerodrome Forecast
Issued by NWS Memphis, TN

Home | Current Version | Previous Version | Text Only | Print | Product List | Glossary On
Versions: 1 2 3 4 5 6 7 8 9 10 11 12 13 14 15 16 17 18 19 20 21 22 23 24 25 26 27 28 29 30 31 32 33
211
FTUS44 KMEG 291129
TAFMEM
TAF
KMEM 291129Z 2912/3012 22006KT P6SM OVC009
     FM291600 24009KT P6SM OVC015
     FM291900 24008KT P6SM OVC030
     FM300000 21005KT P6SM VCTS BKN035CB
      TEMPO 3001/3005 VRB15G25KT 3SM TSRA BKN015CB
     FM300600 20005KT P6SM BKN250=

USA.gov is the U.S. government's official web portal to all federal, state and local government web resources and services.